createdAt,value
2023-03-05T00:00:10.484Z,77.85
2023-03-05T00:01:15.040Z,77.64
2023-03-05T00:02:16.529Z,77.58
2023-03-05T00:03:17.974Z,78.14
2023-03-05T00:04:19.555Z,78.10
2023-03-05T00:05:21.060Z,78.90
2023-03-05T00:06:25.011Z,79.04
2023-03-05T00:07:26.419Z,79.87
2023-03-05T00:08:28.888Z,80.27
2023-03-05T00:09:30.299Z,80.68
2023-03-05T00:10:31.759Z,81.27
2023-03-05T00:11:33.790Z,81.86
2023-03-05T00:12:35.291Z,81.90
2023-03-05T00:13:37.985Z,82.51
2023-03-05T00:14:40.398Z,82.92
2023-03-05T00:15:42.870Z,83.08
2023-03-05T00:16:44.329Z,83.55
2023-03-05T00:17:45.775Z,84.58
2023-03-05T00:18:47.810Z,84.99
2023-03-05T00:19:49.246Z,86.09
2023-03-05T00:20:51.236Z,85.74
2023-03-05T00:21:52.697Z,87.23
2023-03-05T00:22:54.115Z,87.42
2023-03-05T00:23:57.178Z,87.92
2023-03-05T00:24:58.611Z,87.98
2023-03-05T00:26:05.133Z,89.02
2023-03-05T00:27:06.636Z,87.92
2023-03-05T00:28:08.701Z,88.28
2023-03-05T00:29:14.702Z,88.17
2023-03-05T00:30:16.244Z,89.77
2023-03-05T00:31:21.975Z,89.66
2023-03-05T00:32:23.762Z,90.74
2023-03-05T00:33:25.209Z,90.05
2023-03-05T00:34:27.996Z,90.79
2023-03-05T00:35:29.456Z,89.23
2023-03-05T00:36:31.011Z,89.88
2023-03-05T00:37:32.852Z,89.98
2023-03-05T00:38:34.905Z,90.34
2023-03-05T00:39:36.417Z,91.22
2023-03-05T00:40:39.548Z,91.06
2023-03-05T00:41:41.151Z,90.98
2023-03-05T00:42:42.697Z,90.58
2023-03-05T00:43:44.452Z,90.82
2023-03-05T00:44:45.860Z,90.87
2023-03-05T00:45:47.743Z,90.49
2023-03-05T00:46:49.306Z,91.21
2023-03-05T00:47:50.750Z,89.54
2023-03-05T00:48:52.180Z,90.04
2023-03-05T00:49:53.646Z,90.31
2023-03-05T00:50:55.188Z,90.34
2023-03-05T00:51:56.584Z,91.44
2023-03-05T00:52:58.100Z,90.67
2023-03-05T00:53:59.602Z,89.90
2023-03-05T00:55:01.038Z,90.19
2023-03-05T00:56:02.606Z,89.70
2023-03-05T00:57:05.758Z,89.74
2023-03-05T00:58:07.224Z,89.08
2023-03-05T00:59:08.989Z,90.01
2023-03-05T01:00:12.403Z,90.70
2023-03-05T01:01:14.295Z,90.15
2023-03-05T01:02:15.786Z,88.81
2023-03-05T01:03:20.220Z,87.36
2023-03-05T01:04:21.627Z,85.85
2023-03-05T01:05:23.109Z,86.92
2023-03-05T01:06:24.653Z,86.43
2023-03-05T01:07:26.050Z,86.49
2023-03-05T01:08:27.599Z,84.31
2023-03-05T01:09:29.037Z,84.83
2023-03-05T01:10:30.507Z,83.62
2023-03-05T01:11:32.111Z,83.93
2023-03-05T01:12:33.568Z,83.57
2023-03-05T01:13:35.353Z,81.76
2023-03-05T01:14:36.762Z,82.62
2023-03-05T01:15:38.329Z,81.14
2023-03-05T01:16:39.778Z,80.88
2023-03-05T01:17:41.257Z,79.36
2023-03-05T01:18:42.835Z,79.84
2023-03-05T01:19:44.493Z,80.65
2023-03-05T01:20:46.047Z,78.69
2023-03-05T01:21:47.468Z,79.36
2023-03-05T01:22:49.235Z,78.64
2023-03-05T01:23:50.701Z,78.70
2023-03-05T01:24:52.272Z,79.77
2023-03-05T01:25:58.826Z,78.05
2023-03-05T01:27:00.286Z,78.40
2023-03-05T01:28:01.773Z,78.88
2023-03-05T01:29:04.233Z,78.21
2023-03-05T01:30:07.734Z,78.54
2023-03-05T01:31:12.431Z,80.51
2023-03-05T01:32:13.959Z,79.21
2023-03-05T01:33:15.610Z,79.02
2023-03-05T01:34:18.032Z,77.80
2023-03-05T01:35:23.038Z,78.33
2023-03-05T01:36:25.138Z,76.77
2023-03-05T01:37:26.593Z,77.15
2023-03-05T01:38:28.141Z,76.97
2023-03-05T01:39:29.554Z,76.92
2023-03-05T01:40:32.189Z,78.43
2023-03-05T01:41:34.171Z,78.73
2023-03-05T01:42:35.660Z,77.52
2023-03-05T01:43:37.527Z,76.84
2023-03-05T01:44:38.988Z,76.61
2023-03-05T01:46:19.042Z,76.73
2023-03-05T01:47:20.476Z,76.07
2023-03-05T01:48:21.959Z,77.15
2023-03-05T01:49:38.508Z,76.42
2023-03-05T01:50:39.949Z,76.02
2023-03-05T01:51:48.089Z,74.95
2023-03-05T01:52:51.773Z,75.59
2023-03-05T01:53:54.917Z,75.66
2023-03-05T01:54:59.737Z,76.01
2023-03-05T01:56:01.523Z,75.95
2023-03-05T01:57:15.824Z,74.98
2023-03-05T01:58:17.413Z,75.16
2023-03-05T01:59:19.292Z,75.13
2023-03-05T02:00:32.030Z,75.14
2023-03-05T02:01:40.969Z,75.44
2023-03-05T02:02:48.767Z,75.26
2023-03-05T02:03:50.223Z,76.38
2023-03-05T02:05:02.730Z,75.97
2023-03-05T02:06:04.432Z,75.31
2023-03-05T02:07:07.121Z,74.54
2023-03-05T02:08:10.807Z,74.41
2023-03-05T02:09:13.090Z,73.99
2023-03-05T02:10:27.573Z,73.76
2023-03-05T02:11:29.558Z,73.41
2023-03-05T02:12:31.045Z,73.77
2023-03-05T02:13:35.661Z,73.30
2023-03-05T02:14:38.534Z,73.64
2023-03-05T02:15:41.714Z,73.12
2023-03-05T02:16:43.431Z,72.66
2023-03-05T02:17:45.454Z,72.64
2023-03-05T02:18:46.856Z,72.25
2023-03-05T02:19:54.135Z,72.64
2023-03-05T02:20:55.481Z,73.49
2023-03-05T02:21:56.962Z,72.47
2023-03-05T02:22:58.391Z,71.64
2023-03-05T02:23:59.804Z,70.89
2023-03-05T02:25:01.329Z,70.74
2023-03-05T02:26:08.636Z,72.14
2023-03-05T02:27:10.470Z,73.23
2023-03-05T02:28:27.701Z,72.46
2023-03-05T02:29:30.339Z,72.84
2023-03-05T02:30:31.867Z,72.57
2023-03-05T02:31:33.597Z,71.84
2023-03-05T02:32:35.142Z,72.21
2023-03-05T02:33:36.671Z,73.13
2023-03-05T02:34:38.361Z,70.94
2023-03-05T02:35:40.041Z,71.80
2023-03-05T02:36:41.494Z,71.19
2023-03-05T02:37:43.144Z,69.79
2023-03-05T02:38:45.842Z,71.52
2023-03-05T02:39:47.223Z,71.87
2023-03-05T02:40:48.672Z,70.35
2023-03-05T02:41:50.101Z,71.94
2023-03-05T02:42:51.523Z,70.49
2023-03-05T02:43:52.991Z,69.06
2023-03-05T02:44:54.426Z,71.05
2023-03-05T02:45:56.112Z,71.43
2023-03-05T02:46:57.638Z,71.14
2023-03-05T02:47:59.069Z,70.63
2023-03-05T02:49:00.790Z,71.05
2023-03-05T02:50:02.651Z,71.67
2023-03-05T02:51:06.768Z,70.88
2023-03-05T02:52:08.326Z,70.12
2023-03-05T02:53:09.718Z,70.38
2023-03-05T02:54:11.161Z,70.08
2023-03-05T02:55:12.676Z,69.71
2023-03-05T02:56:14.174Z,71.61
2023-03-05T02:57:16.389Z,71.52
2023-03-05T02:58:18.715Z,71.04
2023-03-05T02:59:20.123Z,70.34
2023-03-05T03:00:24.738Z,71.36
2023-03-05T03:01:28.327Z,71.98
2023-03-05T03:02:29.785Z,71.31
2023-03-05T03:03:31.450Z,71.45
2023-03-05T03:04:33.031Z,71.30
2023-03-05T03:05:35.821Z,71.00
2023-03-05T03:06:37.311Z,70.44
2023-03-05T03:07:38.752Z,71.51
2023-03-05T03:08:40.167Z,71.30
2023-03-05T03:09:43.091Z,71.73
2023-03-05T03:10:44.570Z,71.70
2023-03-05T03:11:46.056Z,71.36
2023-03-05T03:12:47.507Z,70.96
2023-03-05T03:13:48.915Z,73.38
2023-03-05T03:14:50.326Z,72.17
2023-03-05T03:16:02.367Z,72.89
2023-03-05T03:17:03.823Z,72.57
2023-03-05T03:18:05.268Z,71.56
2023-03-05T03:19:06.685Z,72.72
2023-03-05T03:20:10.927Z,72.79
2023-03-05T03:21:18.347Z,71.97
2023-03-05T03:22:19.791Z,72.07
2023-03-05T03:23:21.189Z,72.83
2023-03-05T03:24:22.670Z,73.36
2023-03-05T03:25:24.120Z,73.51
2023-03-05T03:26:25.606Z,72.84
2023-03-05T03:27:27.636Z,74.07
2023-03-05T03:28:29.034Z,72.38
2023-03-05T03:29:30.886Z,73.00
2023-03-05T03:30:32.435Z,72.86
2023-03-05T03:31:33.969Z,73.87
2023-03-05T03:32:35.502Z,73.62
2023-03-05T03:33:36.941Z,73.85
2023-03-05T03:34:38.367Z,73.26
2023-03-05T03:35:39.972Z,73.03
2023-03-05T03:36:43.574Z,73.12
2023-03-05T03:37:45.018Z,73.45
2023-03-05T03:38:46.438Z,73.66
2023-03-05T03:39:47.911Z,74.43
2023-03-05T03:40:49.383Z,74.20
2023-03-05T03:41:52.444Z,72.92
2023-03-05T03:42:54.594Z,73.57
2023-03-05T03:43:55.903Z,73.33
2023-03-05T03:44:57.392Z,73.35
2023-03-05T03:45:58.832Z,74.67
2023-03-05T03:47:00.278Z,75.14
2023-03-05T03:48:01.801Z,73.99
2023-03-05T03:49:03.994Z,74.01
2023-03-05T03:50:05.578Z,73.96
2023-03-05T03:51:07.658Z,73.68
2023-03-05T03:52:09.371Z,74.15
2023-03-05T03:53:14.299Z,75.33
2023-03-05T03:54:16.590Z,74.50
2023-03-05T03:55:18.119Z,74.92
2023-03-05T03:56:19.676Z,74.53
2023-03-05T03:57:21.131Z,74.88
2023-03-05T03:58:22.598Z,74.42
2023-03-05T03:59:24.152Z,74.71
2023-03-05T04:00:25.607Z,75.10
2023-03-05T04:01:27.058Z,75.20
2023-03-05T04:02:28.524Z,75.54
2023-03-05T04:03:30.007Z,76.39
2023-03-05T04:04:31.436Z,76.47
2023-03-05T04:05:32.901Z,77.56
2023-03-05T04:06:34.538Z,76.98
2023-03-05T04:07:35.977Z,77.55
2023-03-05T04:08:37.371Z,77.50
2023-03-05T04:09:38.833Z,77.64
2023-03-05T04:10:40.498Z,76.32
2023-03-05T04:11:41.994Z,78.01
2023-03-05T04:12:43.521Z,77.25
2023-03-05T04:13:46.405Z,76.82
2023-03-05T04:14:48.738Z,78.21
2023-03-05T04:15:50.315Z,77.32
2023-03-05T04:16:51.882Z,78.67
2023-03-05T04:17:53.286Z,78.43
2023-03-05T04:18:54.723Z,78.69
2023-03-05T04:19:56.126Z,78.37
2023-03-05T04:20:57.502Z,78.91
2023-03-05T04:21:59.378Z,78.47
2023-03-05T04:23:00.896Z,78.88
2023-03-05T04:24:02.544Z,79.28
2023-03-05T04:25:06.486Z,78.26
2023-03-05T04:26:08.045Z,79.15
2023-03-05T04:27:10.251Z,79.50
2023-03-05T04:28:11.928Z,79.56
2023-03-05T04:29:13.355Z,80.06
2023-03-05T04:30:15.008Z,80.40
2023-03-05T04:31:17.269Z,81.25
2023-03-05T04:32:23.123Z,81.52
2023-03-05T04:33:24.632Z,81.42
2023-03-05T04:34:26.136Z,81.28
2023-03-05T04:35:27.845Z,81.08
2023-03-05T04:36:29.279Z,81.39
2023-03-05T04:37:30.679Z,80.79
2023-03-05T04:38:32.198Z,81.16
2023-03-05T04:39:33.658Z,81.28
2023-03-05T04:40:35.375Z,80.89
2023-03-05T04:41:36.910Z,80.74
2023-03-05T04:42:38.346Z,81.50
2023-03-05T04:43:39.765Z,81.41
2023-03-05T04:44:41.193Z,80.75
2023-03-05T04:45:43.908Z,80.46
2023-03-05T04:46:45.729Z,80.73
2023-03-05T04:47:47.163Z,81.48
2023-03-05T04:48:49.269Z,81.50
2023-03-05T04:49:50.679Z,81.29
2023-03-05T04:50:52.180Z,81.89
2023-03-05T04:51:53.597Z,81.29
2023-03-05T04:52:55.013Z,82.21
2023-03-05T04:53:56.510Z,81.20
2023-03-05T04:54:57.955Z,81.28
2023-03-05T04:56:01.499Z,81.57
2023-03-05T04:57:03.468Z,82.01
2023-03-05T04:58:04.894Z,81.58
2023-03-05T04:59:06.291Z,81.88
2023-03-05T05:00:14.198Z,82.59
2023-03-05T05:01:15.720Z,82.32
2023-03-05T05:02:17.167Z,82.36
2023-03-05T05:03:19.055Z,82.58
2023-03-05T05:04:20.518Z,82.63
2023-03-05T05:05:25.535Z,82.73
2023-03-05T05:06:26.986Z,82.99
2023-03-05T05:07:29.795Z,82.96
2023-03-05T05:08:31.275Z,82.94
2023-03-05T05:09:32.853Z,82.18
2023-03-05T05:10:34.403Z,82.25
2023-03-05T05:11:35.931Z,82.08
2023-03-05T05:12:37.899Z,81.74
2023-03-05T05:13:39.330Z,82.56
2023-03-05T05:14:40.784Z,82.63
2023-03-05T05:15:42.253Z,83.04
2023-03-05T05:16:43.786Z,82.57
2023-03-05T05:17:45.677Z,82.84
2023-03-05T05:18:47.254Z,82.67
2023-03-05T05:19:48.835Z,83.00
2023-03-05T05:20:50.636Z,83.78
2023-03-05T05:21:52.069Z,83.41
2023-03-05T05:22:53.502Z,83.26
2023-03-05T05:23:54.916Z,83.52
2023-03-05T05:24:56.580Z,83.79
2023-03-05T05:25:59.718Z,82.86
2023-03-05T05:27:01.147Z,83.21
2023-03-05T05:28:02.629Z,83.73
2023-03-05T05:29:04.217Z,83.97
2023-03-05T05:30:07.576Z,84.57
2023-03-05T05:31:10.906Z,84.46
2023-03-05T05:32:12.426Z,84.21
2023-03-05T05:33:13.877Z,84.48
2023-03-05T05:34:16.254Z,83.29
2023-03-05T05:35:17.793Z,83.72
2023-03-05T05:36:21.482Z,83.60
2023-03-05T05:37:22.943Z,83.87
2023-03-05T05:38:24.361Z,83.93
2023-03-05T05:39:25.850Z,83.28
2023-03-05T05:40:27.251Z,83.96
2023-03-05T05:41:28.734Z,84.15
2023-03-05T05:42:30.225Z,84.28
2023-03-05T05:43:31.834Z,84.35
2023-03-05T05:44:34.866Z,84.11
2023-03-05T05:45:38.242Z,84.07
2023-03-05T05:46:39.870Z,84.42
2023-03-05T05:47:41.348Z,84.06
2023-03-05T05:48:42.941Z,83.88
2023-03-05T05:49:44.422Z,83.03
2023-03-05T05:50:45.845Z,83.44
2023-03-05T05:51:47.364Z,83.60
2023-03-05T05:52:50.570Z,83.96
2023-03-05T05:53:52.474Z,83.53
2023-03-05T05:54:53.900Z,82.97
2023-03-05T05:55:55.336Z,82.90
2023-03-05T05:56:56.814Z,83.11
2023-03-05T05:57:58.339Z,83.24
2023-03-05T05:58:59.839Z,82.74
2023-03-05T06:00:01.346Z,83.42
2023-03-05T06:01:03.301Z,83.65
2023-03-05T06:02:05.619Z,82.94
2023-03-05T06:03:07.850Z,83.48
2023-03-05T06:04:09.413Z,82.92
2023-03-05T06:05:13.250Z,83.54
2023-03-05T06:06:17.453Z,82.79
2023-03-05T06:07:18.910Z,82.80
2023-03-05T06:08:20.338Z,82.45
2023-03-05T06:09:21.772Z,83.08
2023-03-05T06:10:23.169Z,82.16
2023-03-05T06:11:24.584Z,81.67
2023-03-05T06:12:26.066Z,81.87
2023-03-05T06:13:27.490Z,81.56
2023-03-05T06:14:29.013Z,81.73
2023-03-05T06:15:30.766Z,81.82
2023-03-05T06:16:32.152Z,82.29
2023-03-05T06:17:33.532Z,82.27
2023-03-05T06:18:35.556Z,82.62
2023-03-05T06:19:36.988Z,82.21
2023-03-05T06:20:38.421Z,82.06
2023-03-05T06:21:40.148Z,81.91
2023-03-05T06:22:41.572Z,82.88
2023-03-05T06:23:43.729Z,82.59
2023-03-05T06:24:45.063Z,82.16
2023-03-05T06:25:46.491Z,82.16
2023-03-05T06:26:49.124Z,81.75
2023-03-05T06:27:50.617Z,82.12
2023-03-05T06:28:52.942Z,82.34
2023-03-05T06:29:54.518Z,82.42
2023-03-05T06:31:03.495Z,82.45
2023-03-05T06:32:05.285Z,81.57
2023-03-05T06:33:06.952Z,81.63
2023-03-05T06:34:08.435Z,82.01
2023-03-05T06:35:10.028Z,81.69
2023-03-05T06:36:14.800Z,81.87
2023-03-05T06:37:16.367Z,81.01
2023-03-05T06:38:17.793Z,80.92
2023-03-05T06:39:19.230Z,81.72
2023-03-05T06:40:20.768Z,81.23
2023-03-05T06:41:26.718Z,80.99
2023-03-05T06:42:28.176Z,80.54
2023-03-05T06:43:29.697Z,80.38
2023-03-05T06:44:31.131Z,80.63
2023-03-05T06:45:32.577Z,80.70
2023-03-05T06:46:37.322Z,80.77
2023-03-05T06:47:38.770Z,80.71
2023-03-05T06:48:40.796Z,80.40
2023-03-05T06:49:42.273Z,80.04
2023-03-05T06:50:43.690Z,80.19
2023-03-05T06:51:45.101Z,79.97
2023-03-05T06:52:49.570Z,80.18
2023-03-05T06:53:52.334Z,79.94
2023-03-05T06:54:55.740Z,79.50
2023-03-05T06:55:57.234Z,79.31
2023-03-05T06:56:59.012Z,79.42
2023-03-05T06:58:00.452Z,80.00
2023-03-05T06:59:02.025Z,79.91
2023-03-05T07:00:10.061Z,80.25
2023-03-05T07:01:12.734Z,79.56
2023-03-05T07:02:14.299Z,79.57
2023-03-05T07:03:15.781Z,79.06
2023-03-05T07:04:17.284Z,79.18
2023-03-05T07:05:18.707Z,79.39
2023-03-05T07:06:21.392Z,79.74
2023-03-05T07:07:22.839Z,79.73
2023-03-05T07:08:24.303Z,79.79
2023-03-05T07:09:25.767Z,80.08
2023-03-05T07:10:27.203Z,79.01
2023-03-05T07:11:29.406Z,80.31
2023-03-05T07:12:30.857Z,79.76
2023-03-05T07:13:32.330Z,79.40
2023-03-05T07:14:33.772Z,79.57
2023-03-05T07:15:39.310Z,79.68
2023-03-05T07:16:40.812Z,79.35
2023-03-05T07:17:42.221Z,78.90
2023-03-05T07:18:44.132Z,79.10
2023-03-05T07:19:45.687Z,78.56
2023-03-05T07:20:47.146Z,78.92
2023-03-05T07:21:48.630Z,78.83
2023-03-05T07:22:50.083Z,78.46
2023-03-05T07:23:54.409Z,78.42
2023-03-05T07:24:55.802Z,78.58
2023-03-05T07:25:57.387Z,78.35
2023-03-05T07:26:59.246Z,77.83
2023-03-05T07:28:00.762Z,77.72
2023-03-05T07:29:02.461Z,77.48
2023-03-05T07:30:04.858Z,78.39
2023-03-05T07:31:09.021Z,76.91
2023-03-05T07:32:10.512Z,77.50
2023-03-05T07:33:11.990Z,78.10
2023-03-05T07:34:13.424Z,76.90
2023-03-05T07:35:14.972Z,77.46
2023-03-05T07:36:17.594Z,77.68
2023-03-05T07:37:19.042Z,77.14
2023-03-05T07:38:21.185Z,77.13
2023-03-05T07:39:22.585Z,76.64
2023-03-05T07:40:24.038Z,76.16
2023-03-05T07:41:25.496Z,75.88
2023-03-05T07:42:27.074Z,75.80
2023-03-05T07:43:28.569Z,76.31
2023-03-05T07:44:29.999Z,76.45
2023-03-05T07:45:32.015Z,75.95
2023-03-05T07:46:34.314Z,74.56
2023-03-05T07:47:36.031Z,75.19
2023-03-05T07:48:37.506Z,74.71
2023-03-05T07:49:41.493Z,74.70
2023-03-05T07:50:43.815Z,74.97
2023-03-05T07:51:45.264Z,74.25
2023-03-05T07:52:46.700Z,74.89
2023-03-05T07:53:50.535Z,73.75
2023-03-05T07:54:52.054Z,73.59
2023-03-05T07:55:53.502Z,74.51
2023-03-05T07:56:55.254Z,74.09
2023-03-05T07:57:56.857Z,73.40
2023-03-05T07:58:59.551Z,73.67
2023-03-05T08:00:00.995Z,73.30
2023-03-05T08:01:03.233Z,72.84
2023-03-05T08:02:04.929Z,73.01
2023-03-05T08:03:06.741Z,72.32
2023-03-05T08:04:10.641Z,71.90
2023-03-05T08:05:12.112Z,72.54
2023-03-05T08:06:13.565Z,73.15
2023-03-05T08:07:16.608Z,72.31
2023-03-05T08:08:18.716Z,72.41
2023-03-05T08:09:20.039Z,72.64
2023-03-05T08:10:21.656Z,72.38
2023-03-05T08:11:23.078Z,72.65
2023-03-05T08:12:24.564Z,71.30
2023-03-05T08:13:25.984Z,70.51
2023-03-05T08:14:27.529Z,70.77
2023-03-05T08:15:30.718Z,70.97
2023-03-05T08:16:32.229Z,71.47
2023-03-05T08:17:33.646Z,71.79
2023-03-05T08:18:35.455Z,70.81
2023-03-05T08:19:36.876Z,69.72
2023-03-05T08:20:38.273Z,68.62
2023-03-05T08:21:39.686Z,68.66
2023-03-05T08:22:41.129Z,69.50
2023-03-05T08:23:42.545Z,68.57
2023-03-05T08:24:43.941Z,68.74
2023-03-05T08:25:45.380Z,68.44
2023-03-05T08:26:46.816Z,69.17
2023-03-05T08:27:48.653Z,68.35
2023-03-05T08:28:50.459Z,67.11
2023-03-05T08:29:51.968Z,66.44
2023-03-05T08:30:53.455Z,66.45
2023-03-05T08:31:55.705Z,66.57
2023-03-05T08:32:57.349Z,65.98
2023-03-05T08:34:00.886Z,65.62
2023-03-05T08:35:04.516Z,67.50
2023-03-05T08:36:07.120Z,66.54
2023-03-05T08:37:09.795Z,66.72
2023-03-05T08:38:11.389Z,66.81
2023-03-05T08:39:12.900Z,66.25
2023-03-05T08:40:15.305Z,65.86
2023-03-05T08:41:17.906Z,66.96
2023-03-05T08:42:19.326Z,66.96
2023-03-05T08:43:20.814Z,65.45
2023-03-05T08:44:22.269Z,65.06
2023-03-05T08:45:23.840Z,64.67
2023-03-05T08:46:25.438Z,63.77
2023-03-05T08:47:27.948Z,62.73
2023-03-05T08:48:31.568Z,64.42
2023-03-05T08:49:33.346Z,61.89
2023-03-05T08:50:38.842Z,63.39
2023-03-05T08:51:40.465Z,60.85
2023-03-05T08:52:41.907Z,60.92
2023-03-05T08:53:44.586Z,62.09
2023-03-05T08:54:46.023Z,63.50
2023-03-05T08:55:57.706Z,62.66
2023-03-05T08:56:59.297Z,63.62
2023-03-05T08:58:00.712Z,62.45
2023-03-05T08:59:04.027Z,64.95
2023-03-05T09:00:07.232Z,63.72
2023-03-05T09:01:08.951Z,64.42
2023-03-05T09:02:12.638Z,63.19
2023-03-05T09:03:14.192Z,62.80
2023-03-05T09:04:15.903Z,61.32
2023-03-05T09:05:19.066Z,63.45
2023-03-05T09:06:20.600Z,61.32
2023-03-05T09:07:22.042Z,61.90
2023-03-05T09:08:23.538Z,61.49
2023-03-05T09:09:25.113Z,61.57
2023-03-05T09:10:26.529Z,61.23
2023-03-05T09:11:27.935Z,61.90
2023-03-05T09:12:29.352Z,62.20
2023-03-05T09:13:30.876Z,60.43
2023-03-05T09:14:32.337Z,60.17
2023-03-05T09:15:33.738Z,59.38
2023-03-05T09:16:36.231Z,59.86
2023-03-05T09:17:39.182Z,61.07
2023-03-05T09:18:41.220Z,59.81
2023-03-05T09:19:42.672Z,59.67
2023-03-05T09:20:44.095Z,59.59
2023-03-05T09:21:45.504Z,59.15
2023-03-05T09:22:46.963Z,59.11
2023-03-05T09:23:48.419Z,59.46
2023-03-05T09:24:49.872Z,58.48
2023-03-05T09:25:51.385Z,59.18
2023-03-05T09:26:52.809Z,58.91
2023-03-05T09:27:54.369Z,59.09
2023-03-05T09:28:55.799Z,58.69
2023-03-05T09:29:57.239Z,59.82
2023-03-05T09:31:03.237Z,59.57
2023-03-05T09:32:05.101Z,59.25
2023-03-05T09:33:06.890Z,58.29
2023-03-05T09:34:09.192Z,59.87
2023-03-05T09:35:10.917Z,58.15
2023-03-05T09:36:31.936Z,60.51
2023-03-05T09:37:34.201Z,59.24
2023-03-05T09:38:37.691Z,60.05
2023-03-05T09:39:39.410Z,59.77
2023-03-05T09:40:53.509Z,59.91
2023-03-05T09:42:03.828Z,59.80
2023-03-05T09:43:34.489Z,60.01
2023-03-05T09:44:50.447Z,59.22
2023-03-05T09:46:04.797Z,57.98
2023-03-05T09:47:24.395Z,58.24
2023-03-05T09:49:01.203Z,58.21
2023-03-05T09:50:12.545Z,58.48
2023-03-05T09:51:30.104Z,58.41
2023-03-05T09:52:41.119Z,59.15
2023-03-05T09:53:51.210Z,61.08
2023-03-05T09:54:54.986Z,60.36
2023-03-05T09:55:58.926Z,58.70
2023-03-05T09:57:04.349Z,58.54
2023-03-05T09:58:16.881Z,58.86
2023-03-05T09:59:28.520Z,61.69
2023-03-05T10:00:47.807Z,58.38
2023-03-05T10:01:52.016Z,58.30
2023-03-05T10:02:58.391Z,57.68
2023-03-05T10:04:10.197Z,56.87
2023-03-05T10:05:30.947Z,57.66
2023-03-05T10:06:36.716Z,60.52
2023-03-05T10:07:43.374Z,59.31
2023-03-05T10:09:24.734Z,55.82
2023-03-05T10:10:49.781Z,54.94
2023-03-05T10:11:59.199Z,55.59
2023-03-05T10:13:05.347Z,55.81
2023-03-05T10:14:13.855Z,55.32
2023-03-05T10:15:30.530Z,55.17
2023-03-05T10:16:56.017Z,55.38
2023-03-05T10:17:57.415Z,55.99
2023-03-05T10:19:20.020Z,56.62
2023-03-05T10:21:00.995Z,57.11
2023-03-05T10:22:18.298Z,56.47
2023-03-05T10:23:30.726Z,55.42
2023-03-05T10:24:48.025Z,55.98
2023-03-05T10:25:58.673Z,55.10
2023-03-05T10:27:16.954Z,56.27
2023-03-05T10:28:27.190Z,55.56
2023-03-05T10:29:57.966Z,57.42
2023-03-05T10:31:17.937Z,55.73
2023-03-05T10:33:00.794Z,56.98
2023-03-05T10:34:25.509Z,56.12
2023-03-05T10:35:42.236Z,54.28
2023-03-05T10:37:05.030Z,56.23
2023-03-05T10:38:12.257Z,52.99
2023-03-05T10:39:43.637Z,52.84
2023-03-05T10:41:04.285Z,54.73
2023-03-05T10:42:20.723Z,54.99
2023-03-05T10:43:26.934Z,53.28
2023-03-05T10:44:40.181Z,52.60
2023-03-05T10:45:43.028Z,52.82
2023-03-05T10:46:45.636Z,52.81
2023-03-05T10:47:59.613Z,52.15
2023-03-05T10:49:20.051Z,53.22
2023-03-05T10:50:44.816Z,54.29
2023-03-05T10:52:29.303Z,54.17
2023-03-05T10:53:53.622Z,55.31
2023-03-05T10:54:55.145Z,53.74
2023-03-05T10:56:00.517Z,54.72
2023-03-05T10:57:23.603Z,55.04
2023-03-05T10:58:25.153Z,54.40
2023-03-05T10:59:26.574Z,54.98
2023-03-05T11:00:28.831Z,55.11
2023-03-05T11:01:31.772Z,54.27
2023-03-05T11:02:52.229Z,55.65
2023-03-05T11:03:53.678Z,55.75
2023-03-05T11:04:55.215Z,55.99
2023-03-05T11:06:02.601Z,56.83
2023-03-05T11:07:32.001Z,55.05
2023-03-05T11:08:35.308Z,54.95
2023-03-05T11:09:36.848Z,55.93
2023-03-05T11:10:38.295Z,55.06
2023-03-05T11:11:39.697Z,56.09
2023-03-05T11:12:41.225Z,55.50
2023-03-05T11:14:00.470Z,57.34
2023-03-05T11:15:14.060Z,57.47
2023-03-05T11:16:28.849Z,57.12
2023-03-05T11:17:44.396Z,57.71
2023-03-05T11:18:46.837Z,59.74
2023-03-05T11:19:48.371Z,57.77
2023-03-05T11:20:50.249Z,58.58
2023-03-05T11:22:07.990Z,58.61
2023-03-05T11:23:19.832Z,59.14
2023-03-05T11:24:21.252Z,59.59
2023-03-05T11:25:25.446Z,59.67
2023-03-05T11:26:26.905Z,60.47
2023-03-05T11:27:38.002Z,61.93
2023-03-05T11:28:40.660Z,62.06
2023-03-05T11:29:49.274Z,63.41
2023-03-05T11:31:00.494Z,63.32
2023-03-05T11:32:27.266Z,64.26
2023-03-05T11:33:29.906Z,63.40
2023-03-05T11:34:35.339Z,66.03
2023-03-05T11:35:41.078Z,63.99
2023-03-05T11:37:04.564Z,65.83
2023-03-05T11:38:14.880Z,65.87
2023-03-05T11:39:18.339Z,65.78
2023-03-05T11:40:24.837Z,66.15
2023-03-05T11:41:34.928Z,66.16
2023-03-05T11:42:39.852Z,67.97
2023-03-05T11:43:43.900Z,67.94
2023-03-05T11:44:48.789Z,67.29
2023-03-05T11:45:59.242Z,67.87
2023-03-05T11:47:13.648Z,68.46
2023-03-05T11:48:26.494Z,68.03
2023-03-05T11:49:30.145Z,68.47
2023-03-05T11:50:33.950Z,69.16
2023-03-05T11:51:53.493Z,69.75
2023-03-05T11:52:59.230Z,71.39
2023-03-05T11:54:08.676Z,69.88
2023-03-05T11:55:18.383Z,69.20
2023-03-05T11:56:25.441Z,69.21
2023-03-05T11:57:29.069Z,69.69
2023-03-05T11:59:07.026Z,69.09
2023-03-05T12:00:14.923Z,69.73
2023-03-05T12:01:23.314Z,71.85
2023-03-05T12:02:27.717Z,69.25
2023-03-05T12:03:32.965Z,70.23
2023-03-05T12:04:35.524Z,69.39
2023-03-05T12:05:40.640Z,68.98
2023-03-05T12:06:57.252Z,69.78
2023-03-05T12:08:02.054Z,69.98
2023-03-05T12:09:30.526Z,70.19
2023-03-05T12:10:32.078Z,69.82
2023-03-05T12:11:34.604Z,71.44
2023-03-05T12:12:53.196Z,70.56
2023-03-05T12:13:59.569Z,71.37
2023-03-05T12:15:26.707Z,72.40
2023-03-05T12:16:36.751Z,73.40
2023-03-05T12:17:58.669Z,73.69
2023-03-05T12:19:28.494Z,74.05
2023-03-05T12:20:30.080Z,74.01
2023-03-05T12:21:39.252Z,74.36
2023-03-05T12:22:42.093Z,74.28
2023-03-05T12:23:46.690Z,73.89
2023-03-05T12:24:48.748Z,74.90
2023-03-05T12:25:51.743Z,72.32
2023-03-05T12:26:53.110Z,74.36
2023-03-05T12:27:55.743Z,73.77
2023-03-05T12:28:58.424Z,72.72
2023-03-05T12:30:02.795Z,73.00
2023-03-05T12:31:21.422Z,71.61
2023-03-05T12:32:23.016Z,70.86
2023-03-05T12:33:36.872Z,72.89
2023-03-05T12:34:40.981Z,70.40
2023-03-05T12:35:42.893Z,71.47
2023-03-05T12:36:44.374Z,70.16
2023-03-05T12:37:49.217Z,71.64
2023-03-05T12:38:54.565Z,70.36
2023-03-05T12:40:01.032Z,68.35
2023-03-05T12:41:25.776Z,68.56
2023-03-05T12:42:30.583Z,69.24
2023-03-05T12:43:33.563Z,69.79
2023-03-05T12:44:35.479Z,68.96
2023-03-05T12:45:39.775Z,68.73
2023-03-05T12:46:46.125Z,70.41
2023-03-05T12:47:56.621Z,67.87
2023-03-05T12:48:58.498Z,69.94
2023-03-05T12:50:01.043Z,67.68
2023-03-05T12:51:02.558Z,68.57
2023-03-05T12:52:05.544Z,67.29
2023-03-05T12:53:07.061Z,67.98
2023-03-05T12:54:29.174Z,67.23
2023-03-05T12:55:35.139Z,68.42
2023-03-05T12:56:44.881Z,67.84
2023-03-05T12:57:47.880Z,68.06
2023-03-05T12:58:56.301Z,68.75
2023-03-05T13:00:50.136Z,66.55
2023-03-05T13:02:00.506Z,65.27
2023-03-05T13:03:08.282Z,66.15
2023-03-05T13:04:33.014Z,66.60
2023-03-05T13:05:39.157Z,66.83
2023-03-05T13:06:40.858Z,66.78
2023-03-05T13:07:42.310Z,66.40
2023-03-05T13:08:44.415Z,67.20
2023-03-05T13:09:53.594Z,67.92
2023-03-05T13:10:58.937Z,68.66
2023-03-05T13:12:01.513Z,68.58
2023-03-05T13:13:03.156Z,68.50
2023-03-05T13:14:04.724Z,70.21
2023-03-05T13:15:08.779Z,70.59
2023-03-05T13:16:29.160Z,73.55
2023-03-05T13:17:53.454Z,74.78
2023-03-05T13:18:58.135Z,77.11
2023-03-05T13:20:01.766Z,77.19
2023-03-05T13:21:06.129Z,78.41
2023-03-05T13:22:11.950Z,77.02
2023-03-05T13:23:24.818Z,75.65
2023-03-05T13:24:26.459Z,75.89
2023-03-05T13:25:27.871Z,74.84
2023-03-05T13:26:40.533Z,74.83
2023-03-05T13:27:42.697Z,74.94
2023-03-05T13:29:16.269Z,75.03
2023-03-05T13:30:28.437Z,72.60
2023-03-05T13:31:30.377Z,72.66
2023-03-05T13:32:33.189Z,72.59
2023-03-05T13:33:36.361Z,74.24
2023-03-05T13:34:47.286Z,71.84
2023-03-05T13:35:49.403Z,71.14
2023-03-05T13:37:00.554Z,71.85
2023-03-05T13:38:02.159Z,71.74
2023-03-05T13:39:05.620Z,68.03
2023-03-05T13:40:22.903Z,69.25
2023-03-05T13:41:27.176Z,69.11
2023-03-05T13:42:34.737Z,68.02
2023-03-05T13:43:47.991Z,69.68
2023-03-05T13:44:58.785Z,67.93
2023-03-05T13:46:00.718Z,69.66
2023-03-05T13:47:08.238Z,67.26
2023-03-05T13:48:19.525Z,67.03
2023-03-05T13:49:28.802Z,66.63
2023-03-05T13:50:35.737Z,65.38
2023-03-05T13:51:49.171Z,67.16